sensor_id;sensor_type;location;lat;lon;timestamp;P1;durP1;ratioP1;P2;durP2;ratioP2
37299;SDS011;23184;51.902;12.836;2023-01-29T00:02:00;15.43;;;7.88;;
37299;SDS011;23184;51.902;12.836;2023-01-29T00:04:27;14.57;;;7.93;;
37299;SDS011;23184;51.902;12.836;2023-01-29T00:06:52;17.98;;;7.97;;
37299;SDS011;23184;51.902;12.836;2023-01-29T00:09:18;17.30;;;8.85;;
37299;SDS011;23184;51.902;12.836;2023-01-29T00:11:43;14.70;;;8.07;;
37299;SDS011;23184;51.902;12.836;2023-01-29T00:14:09;15.75;;;8.82;;
37299;SDS011;23184;51.902;12.836;2023-01-29T00:16:34;25.83;;;9.60;;
37299;SDS011;23184;51.902;12.836;2023-01-29T00:19:01;15.98;;;8.30;;
37299;SDS011;23184;51.902;12.836;2023-01-29T00:21:27;16.13;;;7.50;;
37299;SDS011;23184;51.902;12.836;2023-01-29T00:23:56;15.10;;;7.95;;
37299;SDS011;23184;51.902;12.836;2023-01-29T00:26:22;12.68;;;7.57;;
37299;SDS011;23184;51.902;12.836;2023-01-29T00:28:48;17.73;;;7.70;;
37299;SDS011;23184;51.902;12.836;2023-01-29T00:31:22;13.90;;;7.13;;
37299;SDS011;23184;51.902;12.836;2023-01-29T00:33:49;14.68;;;8.13;;
37299;SDS011;23184;51.902;12.836;2023-01-29T00:36:16;17.35;;;8.40;;
37299;SDS011;23184;51.902;12.836;2023-01-29T00:38:43;15.98;;;7.93;;
37299;SDS011;23184;51.902;12.836;2023-01-29T00:41:14;12.40;;;7.07;;
37299;SDS011;23184;51.902;12.836;2023-01-29T00:44:00;16.83;;;8.10;;
37299;SDS011;23184;51.902;12.836;2023-01-29T00:46:44;13.50;;;7.70;;
37299;SDS011;23184;51.902;12.836;2023-01-29T00:49:10;12.20;;;7.35;;
37299;SDS011;23184;51.902;12.836;2023-01-29T00:51:36;11.52;;;6.60;;
37299;SDS011;23184;51.902;12.836;2023-01-29T00:54:03;12.50;;;6.88;;
37299;SDS011;23184;51.902;12.836;2023-01-29T00:56:31;14.75;;;7.22;;
37299;SDS011;23184;51.902;12.836;2023-01-29T00:58:58;12.23;;;6.45;;
37299;SDS011;23184;51.902;12.836;2023-01-29T01:01:24;17.80;;;7.65;;
37299;SDS011;23184;51.902;12.836;2023-01-29T01:04:09;17.88;;;7.15;;
37299;SDS011;23184;51.902;12.836;2023-01-29T01:06:35;14.52;;;7.53;;
37299;SDS011;23184;51.902;12.836;2023-01-29T01:09:05;15.25;;;7.63;;
37299;SDS011;23184;51.902;12.836;2023-01-29T01:11:50;11.55;;;6.60;;
37299;SDS011;23184;51.902;12.836;2023-01-29T01:14:16;12.13;;;6.50;;
37299;SDS011;23184;51.902;12.836;2023-01-29T01:16:46;12.57;;;6.45;;
37299;SDS011;23184;51.902;12.836;2023-01-29T01:19:12;13.00;;;7.47;;
37299;SDS011;23184;51.902;12.836;2023-01-29T01:21:39;19.10;;;8.27;;
37299;SDS011;23184;51.902;12.836;2023-01-29T01:24:09;13.18;;;6.88;;
37299;SDS011;23184;51.902;12.836;2023-01-29T01:26:35;10.82;;;6.13;;
37299;SDS011;23184;51.902;12.836;2023-01-29T01:29:00;12.65;;;6.35;;
37299;SDS011;23184;51.902;12.836;2023-01-29T01:31:26;13.23;;;6.30;;
37299;SDS011;23184;51.902;12.836;2023-01-29T01:33:51;14.10;;;6.90;;
37299;SDS011;23184;51.902;12.836;2023-01-29T01:36:18;11.60;;;6.15;;
37299;SDS011;23184;51.902;12.836;2023-01-29T01:38:44;10.43;;;5.47;;
37299;SDS011;23184;51.902;12.836;2023-01-29T01:41:10;11.90;;;5.45;;
37299;SDS011;23184;51.902;12.836;2023-01-29T01:43:50;11.65;;;6.13;;
37299;SDS011;23184;51.902;12.836;2023-01-29T01:46:18;9.68;;;5.55;;
37299;SDS011;23184;51.902;12.836;2023-01-29T01:48:45;7.63;;;5.10;;
37299;SDS011;23184;51.902;12.836;2023-01-29T01:51:16;9.95;;;5.90;;
37299;SDS011;23184;51.902;12.836;2023-01-29T01:53:43;9.73;;;5.07;;
37299;SDS011;23184;51.902;12.836;2023-01-29T01:56:20;12.20;;;5.53;;
37299;SDS011;23184;51.902;12.836;2023-01-29T01:58:56;13.07;;;7.00;;
37299;SDS011;23184;51.902;12.836;2023-01-29T02:01:23;9.45;;;5.10;;
37299;SDS011;23184;51.902;12.836;2023-01-29T02:04:02;9.05;;;4.70;;
37299;SDS011;23184;51.902;12.836;2023-01-29T02:06:48;10.88;;;5.22;;
37299;SDS011;23184;51.902;12.836;2023-01-29T02:09:38;11.18;;;5.82;;
37299;SDS011;23184;51.902;12.836;2023-01-29T02:12:15;11.13;;;4.50;;
37299;SDS011;23184;51.902;12.836;2023-01-29T02:14:41;11.90;;;5.10;;
37299;SDS011;23184;51.902;12.836;2023-01-29T02:17:09;11.52;;;5.20;;
37299;SDS011;23184;51.902;12.836;2023-01-29T02:19:59;8.63;;;4.82;;
37299;SDS011;23184;51.902;12.836;2023-01-29T02:22:48;10.60;;;5.57;;
37299;SDS011;23184;51.902;12.836;2023-01-29T02:25:29;9.48;;;4.78;;
37299;SDS011;23184;51.902;12.836;2023-01-29T02:28:13;10.10;;;5.22;;
37299;SDS011;23184;51.902;12.836;2023-01-29T02:30:51;11.85;;;5.57;;
37299;SDS011;23184;51.902;12.836;2023-01-29T02:33:25;11.57;;;5.38;;
37299;SDS011;23184;51.902;12.836;2023-01-29T02:36:15;9.90;;;5.05;;
37299;SDS011;23184;51.902;12.836;2023-01-29T02:39:07;10.63;;;4.90;;
37299;SDS011;23184;51.902;12.836;2023-01-29T02:41:57;9.13;;;5.13;;
37299;SDS011;23184;51.902;12.836;2023-01-29T02:44:33;10.75;;;6.38;;
37299;SDS011;23184;51.902;12.836;2023-01-29T02:47:21;11.38;;;5.40;;
37299;SDS011;23184;51.902;12.836;2023-01-29T02:52:43;12.40;;;5.32;;
37299;SDS011;23184;51.902;12.836;2023-01-29T02:55:16;11.07;;;5.70;;
37299;SDS011;23184;51.902;12.836;2023-01-29T02:57:46;10.70;;;5.72;;
37299;SDS011;23184;51.902;12.836;2023-01-29T03:08:20;12.45;;;5.57;;
37299;SDS011;23184;51.902;12.836;2023-01-29T03:11:00;15.32;;;6.10;;
37299;SDS011;23184;51.902;12.836;2023-01-29T03:19:15;11.65;;;6.32;;
37299;SDS011;23184;51.902;12.836;2023-01-29T03:21:53;12.57;;;6.68;;
37299;SDS011;23184;51.902;12.836;2023-01-29T03:24:28;11.68;;;5.95;;
37299;SDS011;23184;51.902;12.836;2023-01-29T03:27:30;12.30;;;6.43;;
37299;SDS011;23184;51.902;12.836;2023-01-29T03:30:18;11.93;;;6.03;;
37299;SDS011;23184;51.902;12.836;2023-01-29T03:33:05;11.68;;;5.68;;
37299;SDS011;23184;51.902;12.836;2023-01-29T03:35:35;15.15;;;6.30;;
37299;SDS011;23184;51.902;12.836;2023-01-29T03:38:04;14.70;;;6.00;;
37299;SDS011;23184;51.902;12.836;2023-01-29T03:40:35;17.40;;;6.63;;
37299;SDS011;23184;51.902;12.836;2023-01-29T03:43:12;12.45;;;6.30;;
37299;SDS011;23184;51.902;12.836;2023-01-29T03:48:50;12.07;;;5.57;;
37299;SDS011;23184;51.902;12.836;2023-01-29T03:51:38;12.18;;;6.13;;
37299;SDS011;23184;51.902;12.836;2023-01-29T03:54:26;12.00;;;6.25;;
37299;SDS011;23184;51.902;12.836;2023-01-29T03:57:27;13.43;;;6.30;;
37299;SDS011;23184;51.902;12.836;2023-01-29T04:05:50;13.43;;;6.43;;
37299;SDS011;23184;51.902;12.836;2023-01-29T04:08:26;14.85;;;7.30;;
37299;SDS011;23184;51.902;12.836;2023-01-29T04:10:55;15.98;;;6.47;;
37299;SDS011;23184;51.902;12.836;2023-01-29T04:13:23;13.52;;;7.28;;
37299;SDS011;23184;51.902;12.836;2023-01-29T04:15:52;12.15;;;6.25;;
37299;SDS011;23184;51.902;12.836;2023-01-29T04:18:22;15.68;;;7.00;;
37299;SDS011;23184;51.902;12.836;2023-01-29T04:20:48;13.68;;;6.65;;
37299;SDS011;23184;51.902;12.836;2023-01-29T04:23:32;11.68;;;6.88;;
37299;SDS011;23184;51.902;12.836;2023-01-29T04:26:09;12.48;;;6.68;;
37299;SDS011;23184;51.902;12.836;2023-01-29T04:29:10;12.77;;;6.75;;
37299;SDS011;23184;51.902;12.836;2023-01-29T04:31:49;13.27;;;7.47;;
37299;SDS011;23184;51.902;12.836;2023-01-29T04:34:28;16.67;;;7.95;;
37299;SDS011;23184;51.902;12.836;2023-01-29T04:39:44;12.20;;;7.10;;
37299;SDS011;23184;51.902;12.836;2023-01-29T04:53:22;14.52;;;8.00;;
37299;SDS011;23184;51.902;12.836;2023-01-29T04:55:58;14.90;;;8.02;;
37299;SDS011;23184;51.902;12.836;2023-01-29T04:58:40;15.15;;;8.32;;
37299;SDS011;23184;51.902;12.836;2023-01-29T05:01:10;15.15;;;8.07;;
37299;SDS011;23184;51.902;12.836;2023-01-29T05:03:41;14.95;;;7.20;;
37299;SDS011;23184;51.902;12.836;2023-01-29T05:06:09;17.60;;;8.27;;
37299;SDS011;23184;51.902;12.836;2023-01-29T05:08:36;16.83;;;8.05;;
37299;SDS011;23184;51.902;12.836;2023-01-29T05:11:03;18.10;;;8.45;;
37299;SDS011;23184;51.902;12.836;2023-01-29T05:13:29;17.00;;;8.52;;
37299;SDS011;23184;51.902;12.836;2023-01-29T05:16:14;17.67;;;8.90;;
37299;SDS011;23184;51.902;12.836;2023-01-29T05:18:44;19.25;;;8.60;;
37299;SDS011;23184;51.902;12.836;2023-01-29T05:21:10;15.82;;;7.95;;
37299;SDS011;23184;51.902;12.836;2023-01-29T05:23:36;15.05;;;8.13;;
37299;SDS011;23184;51.902;12.836;2023-01-29T05:26:02;16.98;;;8.07;;
37299;SDS011;23184;51.902;12.836;2023-01-29T05:28:28;17.58;;;8.30;;
37299;SDS011;23184;51.902;12.836;2023-01-29T05:30:54;23.20;;;9.50;;
37299;SDS011;23184;51.902;12.836;2023-01-29T05:33:27;19.02;;;9.27;;
37299;SDS011;23184;51.902;12.836;2023-01-29T05:38:20;18.00;;;9.23;;
37299;SDS011;23184;51.902;12.836;2023-01-29T05:40:46;18.23;;;9.68;;
37299;SDS011;23184;51.902;12.836;2023-01-29T05:43:13;24.67;;;12.10;;
37299;SDS011;23184;51.902;12.836;2023-01-29T05:45:40;19.83;;;10.50;;
37299;SDS011;23184;51.902;12.836;2023-01-29T05:48:06;22.58;;;10.73;;
37299;SDS011;23184;51.902;12.836;2023-01-29T05:50:31;21.90;;;11.10;;
37299;SDS011;23184;51.902;12.836;2023-01-29T05:53:00;27.33;;;11.82;;
37299;SDS011;23184;51.902;12.836;2023-01-29T05:55:26;26.00;;;11.50;;
37299;SDS011;23184;51.902;12.836;2023-01-29T05:57:53;24.20;;;12.75;;
37299;SDS011;23184;51.902;12.836;2023-01-29T06:00:19;25.00;;;11.00;;
37299;SDS011;23184;51.902;12.836;2023-01-29T06:02:45;21.75;;;11.32;;
37299;SDS011;23184;51.902;12.836;2023-01-29T06:05:10;28.27;;;12.77;;
37299;SDS011;23184;51.902;12.836;2023-01-29T06:07:36;23.08;;;11.70;;
37299;SDS011;23184;51.902;12.836;2023-01-29T06:10:03;25.45;;;11.95;;
37299;SDS011;23184;51.902;12.836;2023-01-29T06:12:29;26.70;;;12.13;;
37299;SDS011;23184;51.902;12.836;2023-01-29T06:14:55;29.23;;;12.73;;
37299;SDS011;23184;51.902;12.836;2023-01-29T06:17:20;26.30;;;12.82;;
37299;SDS011;23184;51.902;12.836;2023-01-29T06:19:46;33.08;;;15.02;;
37299;SDS011;23184;51.902;12.836;2023-01-29T06:22:11;33.78;;;12.80;;
37299;SDS011;23184;51.902;12.836;2023-01-29T06:24:37;32.10;;;13.43;;
37299;SDS011;23184;51.902;12.836;2023-01-29T06:27:02;29.60;;;14.55;;
37299;SDS011;23184;51.902;12.836;2023-01-29T06:29:28;29.75;;;14.07;;
37299;SDS011;23184;51.902;12.836;2023-01-29T06:31:53;31.35;;;13.95;;
37299;SDS011;23184;51.902;12.836;2023-01-29T06:34:19;29.05;;;13.15;;
37299;SDS011;23184;51.902;12.836;2023-01-29T06:36:44;31.30;;;14.23;;
37299;SDS011;23184;51.902;12.836;2023-01-29T06:39:09;32.88;;;14.13;;
37299;SDS011;23184;51.902;12.836;2023-01-29T06:41:36;34.80;;;13.60;;
37299;SDS011;23184;51.902;12.836;2023-01-29T06:44:01;28.25;;;13.90;;
37299;SDS011;23184;51.902;12.836;2023-01-29T06:46:27;33.85;;;16.25;;
37299;SDS011;23184;51.902;12.836;2023-01-29T06:48:53;30.50;;;15.65;;
37299;SDS011;23184;51.902;12.836;2023-01-29T06:51:18;30.25;;;15.32;;
37299;SDS011;23184;51.902;12.836;2023-01-29T06:53:45;33.75;;;14.50;;
37299;SDS011;23184;51.902;12.836;2023-01-29T06:56:10;29.25;;;14.18;;
37299;SDS011;23184;51.902;12.836;2023-01-29T06:58:36;31.95;;;14.80;;
37299;SDS011;23184;51.902;12.836;2023-01-29T07:01:03;33.90;;;14.77;;
37299;SDS011;23184;51.902;12.836;2023-01-29T07:03:28;33.88;;;16.33;;
37299;SDS011;23184;51.902;12.836;2023-01-29T07:05:54;32.88;;;15.88;;
37299;SDS011;23184;51.902;12.836;2023-01-29T07:08:19;32.70;;;15.95;;
37299;SDS011;23184;51.902;12.836;2023-01-29T07:10:46;35.38;;;17.08;;
37299;SDS011;23184;51.902;12.836;2023-01-29T07:13:12;31.25;;;14.20;;
37299;SDS011;23184;51.902;12.836;2023-01-29T07:15:38;35.08;;;15.30;;
37299;SDS011;23184;51.902;12.836;2023-01-29T07:18:03;30.67;;;15.00;;
37299;SDS011;23184;51.902;12.836;2023-01-29T07:20:35;33.00;;;14.60;;
37299;SDS011;23184;51.902;12.836;2023-01-29T07:23:03;35.45;;;16.52;;
37299;SDS011;23184;51.902;12.836;2023-01-29T07:25:28;32.03;;;16.60;;
37299;SDS011;23184;51.902;12.836;2023-01-29T07:27:54;36.67;;;16.33;;
37299;SDS011;23184;51.902;12.836;2023-01-29T07:30:20;32.25;;;15.32;;
37299;SDS011;23184;51.902;12.836;2023-01-29T07:32:45;34.78;;;15.70;;
37299;SDS011;23184;51.902;12.836;2023-01-29T07:35:11;30.10;;;14.88;;
37299;SDS011;23184;51.902;12.836;2023-01-29T07:37:36;37.13;;;15.52;;
37299;SDS011;23184;51.902;12.836;2023-01-29T07:40:02;29.60;;;14.05;;
37299;SDS011;23184;51.902;12.836;2023-01-29T07:42:30;34.60;;;16.80;;
37299;SDS011;23184;51.902;12.836;2023-01-29T07:44:55;32.97;;;15.98;;
37299;SDS011;23184;51.902;12.836;2023-01-29T07:47:20;35.70;;;16.27;;
37299;SDS011;23184;51.902;12.836;2023-01-29T07:49:46;32.35;;;14.02;;
37299;SDS011;23184;51.902;12.836;2023-01-29T07:52:11;28.58;;;14.35;;
37299;SDS011;23184;51.902;12.836;2023-01-29T07:54:37;27.10;;;13.75;;
37299;SDS011;23184;51.902;12.836;2023-01-29T07:57:02;31.80;;;15.23;;
37299;SDS011;23184;51.902;12.836;2023-01-29T07:59:28;28.70;;;14.20;;
37299;SDS011;23184;51.902;12.836;2023-01-29T08:01:53;29.60;;;14.63;;
37299;SDS011;23184;51.902;12.836;2023-01-29T08:04:19;27.95;;;13.48;;
37299;SDS011;23184;51.902;12.836;2023-01-29T08:06:44;27.85;;;14.05;;
37299;SDS011;23184;51.902;12.836;2023-01-29T08:09:10;25.88;;;13.18;;
37299;SDS011;23184;51.902;12.836;2023-01-29T08:11:36;33.50;;;13.52;;
37299;SDS011;23184;51.902;12.836;2023-01-29T08:14:02;29.88;;;14.38;;
37299;SDS011;23184;51.902;12.836;2023-01-29T08:16:27;30.25;;;13.63;;
37299;SDS011;23184;51.902;12.836;2023-01-29T08:18:53;30.70;;;14.25;;
37299;SDS011;23184;51.902;12.836;2023-01-29T08:21:18;30.90;;;12.85;;
37299;SDS011;23184;51.902;12.836;2023-01-29T08:23:44;26.27;;;14.02;;
37299;SDS011;23184;51.902;12.836;2023-01-29T08:26:09;32.90;;;14.77;;
37299;SDS011;23184;51.902;12.836;2023-01-29T08:28:35;27.75;;;12.73;;
37299;SDS011;23184;51.902;12.836;2023-01-29T08:31:02;28.83;;;13.88;;
37299;SDS011;23184;51.902;12.836;2023-01-29T08:33:28;27.15;;;14.20;;
37299;SDS011;23184;51.902;12.836;2023-01-29T08:35:54;32.10;;;15.07;;
37299;SDS011;23184;51.902;12.836;2023-01-29T08:38:19;32.00;;;14.50;;
37299;SDS011;23184;51.902;12.836;2023-01-29T08:40:45;34.20;;;14.00;;
37299;SDS011;23184;51.902;12.836;2023-01-29T08:43:11;34.25;;;14.55;;
37299;SDS011;23184;51.902;12.836;2023-01-29T08:45:38;30.80;;;13.65;;
37299;SDS011;23184;51.902;12.836;2023-01-29T08:48:05;29.52;;;15.00;;
37299;SDS011;23184;51.902;12.836;2023-01-29T08:50:32;33.50;;;16.08;;
37299;SDS011;23184;51.902;12.836;2023-01-29T08:52:59;28.98;;;14.65;;
37299;SDS011;23184;51.902;12.836;2023-01-29T08:55:26;30.73;;;13.90;;
37299;SDS011;23184;51.902;12.836;2023-01-29T08:57:52;30.67;;;14.50;;
37299;SDS011;23184;51.902;12.836;2023-01-29T09:00:17;30.42;;;15.30;;
37299;SDS011;23184;51.902;12.836;2023-01-29T09:02:43;33.00;;;15.30;;
37299;SDS011;23184;51.902;12.836;2023-01-29T09:05:09;33.90;;;16.42;;
37299;SDS011;23184;51.902;12.836;2023-01-29T09:07:34;31.30;;;15.25;;
37299;SDS011;23184;51.902;12.836;2023-01-29T09:10:00;29.92;;;15.00;;
37299;SDS011;23184;51.902;12.836;2023-01-29T09:12:26;33.97;;;16.35;;
37299;SDS011;23184;51.902;12.836;2023-01-29T09:14:52;33.65;;;16.70;;
37299;SDS011;23184;51.902;12.836;2023-01-29T09:17:17;26.60;;;13.27;;
37299;SDS011;23184;51.902;12.836;2023-01-29T09:19:43;33.28;;;16.15;;
37299;SDS011;23184;51.902;12.836;2023-01-29T09:22:08;31.30;;;16.30;;
37299;SDS011;23184;51.902;12.836;2023-01-29T09:24:34;32.45;;;16.33;;
37299;SDS011;23184;51.902;12.836;2023-01-29T09:27:00;33.97;;;16.83;;
37299;SDS011;23184;51.902;12.836;2023-01-29T09:29:26;35.67;;;17.70;;
37299;SDS011;23184;51.902;12.836;2023-01-29T09:31:51;37.22;;;15.68;;
37299;SDS011;23184;51.902;12.836;2023-01-29T09:34:16;33.80;;;17.77;;
37299;SDS011;23184;51.902;12.836;2023-01-29T09:36:42;30.35;;;15.05;;
37299;SDS011;23184;51.902;12.836;2023-01-29T09:39:08;35.13;;;15.65;;
37299;SDS011;23184;51.902;12.836;2023-01-29T09:47:10;29.58;;;15.02;;
37299;SDS011;23184;51.902;12.836;2023-01-29T09:49:40;29.48;;;15.40;;
37299;SDS011;23184;51.902;12.836;2023-01-29T09:52:17;28.65;;;14.15;;
37299;SDS011;23184;51.902;12.836;2023-01-29T09:55:38;32.13;;;15.82;;
37299;SDS011;23184;51.902;12.836;2023-01-29T09:58:04;34.60;;;17.48;;
37299;SDS011;23184;51.902;12.836;2023-01-29T10:06:32;29.42;;;15.48;;
37299;SDS011;23184;51.902;12.836;2023-01-29T10:17:30;33.83;;;16.45;;
37299;SDS011;23184;51.902;12.836;2023-01-29T10:20:18;33.97;;;14.50;;
37299;SDS011;23184;51.902;12.836;2023-01-29T10:25:39;29.80;;;13.80;;
37299;SDS011;23184;51.902;12.836;2023-01-29T10:28:26;30.60;;;13.57;;
37299;SDS011;23184;51.902;12.836;2023-01-29T10:31:08;29.67;;;14.15;;
37299;SDS011;23184;51.902;12.836;2023-01-29T10:33:40;30.13;;;14.70;;
37299;SDS011;23184;51.902;12.836;2023-01-29T10:36:08;32.45;;;15.57;;
37299;SDS011;23184;51.902;12.836;2023-01-29T10:38:41;31.13;;;18.58;;
37299;SDS011;23184;51.902;12.836;2023-01-29T10:44:20;32.72;;;15.68;;
37299;SDS011;23184;51.902;12.836;2023-01-29T10:47:27;31.92;;;15.23;;
37299;SDS011;23184;51.902;12.836;2023-01-29T10:53:04;27.75;;;14.95;;
37299;SDS011;23184;51.902;12.836;2023-01-29T10:58:48;30.85;;;14.35;;
37299;SDS011;23184;51.902;12.836;2023-01-29T11:01:16;31.88;;;15.07;;
37299;SDS011;23184;51.902;12.836;2023-01-29T11:03:41;29.00;;;13.90;;
37299;SDS011;23184;51.902;12.836;2023-01-29T11:06:09;30.25;;;14.52;;
37299;SDS011;23184;51.902;12.836;2023-01-29T11:11:53;27.35;;;13.10;;
37299;SDS011;23184;51.902;12.836;2023-01-29T11:17:38;28.30;;;14.73;;
37299;SDS011;23184;51.902;12.836;2023-01-29T11:20:27;27.98;;;13.52;;
37299;SDS011;23184;51.902;12.836;2023-01-29T11:22:53;32.20;;;15.18;;
37299;SDS011;23184;51.902;12.836;2023-01-29T11:25:23;30.05;;;14.52;;
37299;SDS011;23184;51.902;12.836;2023-01-29T11:27:56;29.70;;;15.43;;
37299;SDS011;23184;51.902;12.836;2023-01-29T11:30:29;28.17;;;13.77;;
37299;SDS011;23184;51.902;12.836;2023-01-29T11:35:29;25.80;;;12.95;;
37299;SDS011;23184;51.902;12.836;2023-01-29T11:38:05;30.50;;;16.10;;
37299;SDS011;23184;51.902;12.836;2023-01-29T11:40:36;28.73;;;13.57;;
37299;SDS011;23184;51.902;12.836;2023-01-29T11:45:54;28.30;;;12.88;;
37299;SDS011;23184;51.902;12.836;2023-01-29T11:48:29;28.67;;;13.57;;
37299;SDS011;23184;51.902;12.836;2023-01-29T11:50:59;26.25;;;12.15;;
37299;SDS011;23184;51.902;12.836;2023-01-29T11:53:32;29.85;;;15.13;;
37299;SDS011;23184;51.902;12.836;2023-01-29T11:56:20;27.05;;;13.32;;
37299;SDS011;23184;51.902;12.836;2023-01-29T11:58:50;27.85;;;14.32;;
37299;SDS011;23184;51.902;12.836;2023-01-29T12:01:22;26.13;;;12.02;;
37299;SDS011;23184;51.902;12.836;2023-01-29T12:03:54;24.65;;;13.48;;
37299;SDS011;23184;51.902;12.836;2023-01-29T12:06:20;27.25;;;14.15;;
37299;SDS011;23184;51.902;12.836;2023-01-29T12:08:52;27.60;;;14.50;;
37299;SDS011;23184;51.902;12.836;2023-01-29T12:11:26;28.02;;;12.55;;
37299;SDS011;23184;51.902;12.836;2023-01-29T12:13:57;29.42;;;14.60;;
37299;SDS011;23184;51.902;12.836;2023-01-29T12:19:39;25.20;;;13.80;;
37299;SDS011;23184;51.902;12.836;2023-01-29T12:24:31;29.00;;;13.50;;
37299;SDS011;23184;51.902;12.836;2023-01-29T12:27:23;30.35;;;14.77;;
37299;SDS011;23184;51.902;12.836;2023-01-29T12:30:01;27.30;;;13.68;;
37299;SDS011;23184;51.902;12.836;2023-01-29T12:32:54;27.90;;;14.18;;
37299;SDS011;23184;51.902;12.836;2023-01-29T12:38:50;32.95;;;13.88;;
37299;SDS011;23184;51.902;12.836;2023-01-29T12:41:30;31.67;;;15.10;;
37299;SDS011;23184;51.902;12.836;2023-01-29T12:44:11;30.83;;;14.48;;
37299;SDS011;23184;51.902;12.836;2023-01-29T12:46:57;32.22;;;15.75;;
37299;SDS011;23184;51.902;12.836;2023-01-29T12:49:31;33.25;;;15.75;;
37299;SDS011;23184;51.902;12.836;2023-01-29T12:52:12;38.90;;;15.93;;
37299;SDS011;23184;51.902;12.836;2023-01-29T12:54:47;40.95;;;16.83;;
37299;SDS011;23184;51.902;12.836;2023-01-29T12:57:19;35.70;;;18.17;;
37299;SDS011;23184;51.902;12.836;2023-01-29T12:59:54;36.13;;;17.85;;
37299;SDS011;23184;51.902;12.836;2023-01-29T13:02:37;31.80;;;17.08;;
37299;SDS011;23184;51.902;12.836;2023-01-29T13:08:07;30.65;;;15.85;;
37299;SDS011;23184;51.902;12.836;2023-01-29T13:10:40;34.67;;;15.20;;
37299;SDS011;23184;51.902;12.836;2023-01-29T13:13:13;31.40;;;16.35;;
37299;SDS011;23184;51.902;12.836;2023-01-29T13:15:55;35.83;;;18.02;;
37299;SDS011;23184;51.902;12.836;2023-01-29T13:21:12;31.05;;;15.38;;
37299;SDS011;23184;51.902;12.836;2023-01-29T13:23:43;31.20;;;15.00;;
37299;SDS011;23184;51.902;12.836;2023-01-29T13:26:18;28.70;;;14.55;;
37299;SDS011;23184;51.902;12.836;2023-01-29T13:28:45;28.77;;;14.63;;
37299;SDS011;23184;51.902;12.836;2023-01-29T13:33:43;27.40;;;13.65;;
37299;SDS011;23184;51.902;12.836;2023-01-29T13:36:30;31.42;;;15.35;;
37299;SDS011;23184;51.902;12.836;2023-01-29T13:38:58;30.75;;;14.57;;
37299;SDS011;23184;51.902;12.836;2023-01-29T13:41:36;30.30;;;15.73;;
37299;SDS011;23184;51.902;12.836;2023-01-29T13:46:41;31.45;;;15.55;;
37299;SDS011;23184;51.902;12.836;2023-01-29T13:49:26;29.90;;;15.15;;
37299;SDS011;23184;51.902;12.836;2023-01-29T13:52:14;29.30;;;14.63;;
37299;SDS011;23184;51.902;12.836;2023-01-29T13:54:54;34.28;;;16.73;;
37299;SDS011;23184;51.902;12.836;2023-01-29T13:57:32;37.85;;;16.67;;
37299;SDS011;23184;51.902;12.836;2023-01-29T14:00:46;36.35;;;16.52;;
37299;SDS011;23184;51.902;12.836;2023-01-29T14:07:57;44.35;;;17.58;;
37299;SDS011;23184;51.902;12.836;2023-01-29T14:10:27;40.63;;;17.08;;
37299;SDS011;23184;51.902;12.836;2023-01-29T14:16:23;43.65;;;18.17;;
37299;SDS011;23184;51.902;12.836;2023-01-29T14:18:33;39.80;;;18.25;;
37299;SDS011;23184;51.902;12.836;2023-01-29T14:23:30;41.60;;;19.13;;
37299;SDS011;23184;51.902;12.836;2023-01-29T14:26:01;39.25;;;17.02;;
37299;SDS011;23184;51.902;12.836;2023-01-29T14:28:29;39.28;;;17.45;;
37299;SDS011;23184;51.902;12.836;2023-01-29T14:30:57;43.55;;;17.35;;
37299;SDS011;23184;51.902;12.836;2023-01-29T14:36:02;39.30;;;17.13;;
37299;SDS011;23184;51.902;12.836;2023-01-29T14:38:30;35.63;;;16.42;;
37299;SDS011;23184;51.902;12.836;2023-01-29T14:41:02;35.78;;;16.15;;
37299;SDS011;23184;51.902;12.836;2023-01-29T14:43:31;33.63;;;16.20;;
37299;SDS011;23184;51.902;12.836;2023-01-29T14:46:39;34.83;;;15.50;;
37299;SDS011;23184;51.902;12.836;2023-01-29T14:48:57;33.67;;;15.52;;
37299;SDS011;23184;51.902;12.836;2023-01-29T14:51:23;41.22;;;17.58;;
37299;SDS011;23184;51.902;12.836;2023-01-29T14:56:28;41.13;;;17.08;;
37299;SDS011;23184;51.902;12.836;2023-01-29T14:59:11;39.25;;;17.10;;
37299;SDS011;23184;51.902;12.836;2023-01-29T15:01:50;42.80;;;18.17;;
37299;SDS011;23184;51.902;12.836;2023-01-29T15:04:23;40.10;;;16.88;;
37299;SDS011;23184;51.902;12.836;2023-01-29T15:07:10;41.08;;;16.08;;
37299;SDS011;23184;51.902;12.836;2023-01-29T15:09:47;42.85;;;17.95;;
37299;SDS011;23184;51.902;12.836;2023-01-29T15:12:22;39.45;;;18.13;;
37299;SDS011;23184;51.902;12.836;2023-01-29T15:15:00;37.42;;;16.30;;
37299;SDS011;23184;51.902;12.836;2023-01-29T15:17:35;39.08;;;16.60;;
37299;SDS011;23184;51.902;12.836;2023-01-29T15:22:51;36.35;;;19.38;;
37299;SDS011;23184;51.902;12.836;2023-01-29T15:25:16;36.30;;;16.58;;
37299;SDS011;23184;51.902;12.836;2023-01-29T15:27:44;38.35;;;18.05;;
37299;SDS011;23184;51.902;12.836;2023-01-29T15:30:13;35.40;;;16.73;;
37299;SDS011;23184;51.902;12.836;2023-01-29T15:32:45;37.35;;;17.95;;
37299;SDS011;23184;51.902;12.836;2023-01-29T15:40:27;38.60;;;20.08;;
37299;SDS011;23184;51.902;12.836;2023-01-29T15:42:53;43.88;;;19.92;;
37299;SDS011;23184;51.902;12.836;2023-01-29T15:45:21;44.05;;;20.30;;
37299;SDS011;23184;51.902;12.836;2023-01-29T15:47:49;39.33;;;18.27;;
37299;SDS011;23184;51.902;12.836;2023-01-29T15:50:16;40.72;;;18.55;;
37299;SDS011;23184;51.902;12.836;2023-01-29T15:52:42;41.40;;;19.17;;
37299;SDS011;23184;51.902;12.836;2023-01-29T15:55:18;50.35;;;21.33;;
37299;SDS011;23184;51.902;12.836;2023-01-29T15:57:47;43.47;;;19.83;;
37299;SDS011;23184;51.902;12.836;2023-01-29T16:00:46;44.30;;;20.85;;
37299;SDS011;23184;51.902;12.836;2023-01-29T16:03:14;37.15;;;18.98;;
37299;SDS011;23184;51.902;12.836;2023-01-29T16:05:40;37.85;;;17.48;;
37299;SDS011;23184;51.902;12.836;2023-01-29T16:08:06;42.60;;;18.88;;
37299;SDS011;23184;51.902;12.836;2023-01-29T16:10:37;41.63;;;16.70;;
37299;SDS011;23184;51.902;12.836;2023-01-29T16:13:05;39.70;;;18.05;;
37299;SDS011;23184;51.902;12.836;2023-01-29T16:15:52;40.70;;;18.25;;
37299;SDS011;23184;51.902;12.836;2023-01-29T16:18:24;42.17;;;17.98;;
37299;SDS011;23184;51.902;12.836;2023-01-29T16:20:54;38.03;;;16.75;;
37299;SDS011;23184;51.902;12.836;2023-01-29T16:23:23;39.50;;;17.30;;
37299;SDS011;23184;51.902;12.836;2023-01-29T16:25:51;35.80;;;17.63;;
37299;SDS011;23184;51.902;12.836;2023-01-29T16:28:20;34.72;;;17.33;;
37299;SDS011;23184;51.902;12.836;2023-01-29T16:30:46;37.30;;;18.77;;
37299;SDS011;23184;51.902;12.836;2023-01-29T16:33:15;38.80;;;18.83;;
37299;SDS011;23184;51.902;12.836;2023-01-29T16:35:41;32.38;;;16.52;;
37299;SDS011;23184;51.902;12.836;2023-01-29T16:38:25;37.28;;;17.27;;
37299;SDS011;23184;51.902;12.836;2023-01-29T16:41:07;31.95;;;15.20;;
37299;SDS011;23184;51.902;12.836;2023-01-29T16:46:53;33.83;;;15.40;;
37299;SDS011;23184;51.902;12.836;2023-01-29T16:48:58;33.13;;;17.50;;
37299;SDS011;23184;51.902;12.836;2023-01-29T16:51:25;33.15;;;16.83;;